Time;durP1;ratioP1;P1;durP2;ratioP2;P2;SDS_P1;SDS_P2;PMS_P1;PMS_P2;Temp;Humidity;BMP_temperature;BMP_pressure;BME280_temperature;BME280_humidity;BME280_pressure;Samples;Min_cycle;Max_cycle;Signal;HPM_P1;HPM_P2
2023/07/05 00:00:57;;;;;;;14.60;7.57;;;;;;;21.16;66.61;100530.59;5081941;28;20040;-64
2023/07/05 00:03:24;;;;;;;10.80;7.03;;;;;;;21.18;66.54;100531.00;5077060;28;20408;-64
2023/07/05 00:05:52;;;;;;;11.55;7.50;;;;;;;21.19;65.82;100529.81;5058285;28;20048;-64
2023/07/05 00:08:22;;;;;;;11.88;7.53;;;;;;;21.31;65.45;100546.28;5056770;28;20048;-63
2023/07/05 00:10:50;;;;;;;;;;;;;;;21.05;66.45;100540.91;5064118;28;20052;-64
2023/07/05 00:13:17;;;;;;;12.23;7.20;;;;;;;20.84;66.83;100551.88;5076835;28;19924;-63
2023/07/05 00:15:48;;;;;;;11.45;7.88;;;;;;;20.55;67.92;100552.81;5076384;28;20048;-64
2023/07/05 00:18:16;;;;;;;11.80;7.78;;;;;;;20.71;67.34;100556.19;5076542;28;20432;-63
2023/07/05 00:20:43;;;;;;;13.25;7.82;;;;;;;20.49;67.98;100555.16;5074601;28;20372;-63
2023/07/05 00:23:11;;;;;;;11.50;7.78;;;;;;;20.72;66.12;100560.56;5072101;28;20419;-63
2023/07/05 00:25:38;;;;;;;12.27;8.60;;;;;;;20.30;67.64;100566.53;5087829;28;20045;-64
2023/07/05 00:28:05;;;;;;;12.38;8.27;;;;;;;20.62;67.18;100564.06;5066407;28;20061;-64
2023/07/05 00:30:33;;;;;;;11.50;8.07;;;;;;;20.76;66.33;100567.84;5054565;28;20052;-63
2023/07/05 00:33:00;;;;;;;11.15;7.85;;;;;;;20.79;65.81;100571.84;5055745;28;20052;-63
2023/07/05 00:35:27;;;;;;;11.13;7.47;;;;;;;20.66;65.81;100570.53;5061940;28;20036;-63
2023/07/05 00:37:56;;;;;;;12.63;8.15;;;;;;;20.75;65.66;100576.59;5076227;28;20048;-64
2023/07/05 00:40:23;;;;;;;12.18;7.28;;;;;;;20.82;64.60;100574.66;5070489;28;20053;-63
2023/07/05 00:42:50;;;;;;;11.25;8.05;;;;;;;19.99;66.96;100578.91;5075233;28;20060;-63
2023/07/05 00:45:18;;;;;;;11.32;8.15;;;;;;;20.05;67.61;100577.38;5073743;28;20044;-64
2023/07/05 00:47:45;;;;;;;13.05;8.10;;;;;;;20.54;66.04;100585.56;5074383;28;20057;-63
2023/07/05 00:50:22;;;;;;;12.10;8.13;;;;;;;20.53;63.80;100572.78;5076343;28;20136;-63
2023/07/05 00:52:51;;;;;;;11.57;8.02;;;;;;;20.80;64.70;100588.25;5076386;28;20044;-63
2023/07/05 00:55:18;;;;;;;12.65;7.88;;;;;;;20.90;63.79;100586.75;5057955;28;20048;-63
2023/07/05 00:57:46;;;;;;;12.13;7.38;;;;;;;20.82;63.02;100588.66;5071476;28;20053;-63
2023/07/05 01:00:15;;;;;;;12.35;8.38;;;;;;;20.73;64.08;100595.78;5058710;28;20052;-62
2023/07/05 01:02:46;;;;;;;14.18;7.90;;;;;;;20.67;64.01;100602.91;5074303;28;20585;-63
2023/07/05 01:05:13;;;;;;;11.68;7.72;;;;;;;20.43;64.86;100614.63;5107360;28;20060;-63
2023/07/05 01:07:40;;;;;;;11.32;7.82;;;;;;;20.36;64.78;100622.94;5075204;28;20573;-62
2023/07/05 01:10:20;;;;;;;11.90;8.02;;;;;;;19.86;66.22;100625.06;5075228;28;20049;-63
2023/07/05 01:12:53;;;;;;;11.98;7.38;;;;;;;18.97;67.52;100643.50;5075587;28;20057;-63
2023/07/05 01:15:28;;;;;;;10.70;6.90;;;;;;;19.12;69.77;100644.59;5087559;28;20052;-63
2023/07/05 01:18:29;;;;;;;13.93;7.68;;;;;;;19.11;70.38;100654.16;5076741;28;20051;-63
2023/07/05 01:21:11;;;;;;;11.95;7.35;;;;;;;18.26;70.78;100648.84;5085283;28;20068;-63
2023/07/05 01:23:54;;;;;;;11.02;7.32;;;;;;;19.14;70.71;100653.41;5127868;27;20071;-63
2023/07/05 01:26:23;;;;;;;11.35;7.05;;;;;;;19.89;67.52;100649.44;5095751;28;20047;-63
2023/07/05 01:29:18;;;;;;;10.35;7.13;;;;;;;19.84;65.77;100655.38;5079510;28;20049;-63
2023/07/05 01:31:58;;;;;;;13.32;7.30;;;;;;;20.12;64.55;100649.38;5073700;28;20055;-63
2023/07/05 01:34:29;;;;;;;9.93;6.38;;;;;;;20.53;64.23;100645.53;5075160;28;20444;-63
2023/07/05 01:36:56;;;;;;;13.05;7.35;;;;;;;20.64;63.62;100643.66;5075465;28;20041;-63
2023/07/05 01:39:24;;;;;;;13.48;7.00;;;;;;;20.70;63.55;100644.13;5083779;28;20044;-63
2023/07/05 01:41:51;;;;;;;13.15;6.40;;;;;;;20.72;62.79;100650.97;5053518;28;20063;-63
2023/07/05 01:44:20;;;;;;;10.90;6.55;;;;;;;20.67;62.43;100653.28;5075524;28;20048;-63
2023/07/05 01:46:57;;;;;;;10.18;6.75;;;;;;;20.42;61.74;100661.38;5073289;28;20044;-64
2023/07/05 01:49:36;;;;;;;11.48;6.03;;;;;;;20.46;63.77;100667.03;5073340;28;20052;-64
2023/07/05 01:52:37;;;;;;;11.45;6.20;;;;;;;20.33;63.66;100674.84;5073707;28;20052;-63
2023/07/05 01:55:25;;;;;;;11.35;5.95;;;;;;;19.99;62.51;100676.78;5057639;28;20052;-63
2023/07/05 01:58:09;;;;;;;10.80;5.80;;;;;;;19.64;64.46;100690.22;5057892;28;20062;-63
2023/07/05 02:00:38;;;;;;;9.85;5.88;;;;;;;19.75;64.61;100685.56;5110095;27;20483;-63
2023/07/05 02:03:12;;;;;;;11.80;5.85;;;;;;;18.91;62.18;100696.06;5076951;28;20052;-63
2023/07/05 02:05:39;;;;;;;9.93;5.03;;;;;;;17.44;68.89;100701.06;5060804;28;20048;-63
2023/07/05 02:08:07;;;;;;;8.60;4.63;;;;;;;18.17;66.46;100699.25;5056017;28;20578;-63
2023/07/05 02:10:34;;;;;;;9.73;5.00;;;;;;;18.21;67.08;100699.34;5078564;28;20051;-64
2023/07/05 02:13:07;;;;;;;9.70;5.45;;;;;;;18.14;69.19;100696.38;5092547;28;20048;-63
2023/07/05 02:15:37;;;;;;;11.75;5.03;;;;;;;18.33;69.88;100700.03;5068776;28;20088;-63
2023/07/05 02:18:05;;;;;;;;;;;;;;;18.14;69.23;100696.38;5066079;28;20048;-63
2023/07/05 02:20:32;;;;;;;9.45;4.47;;;;;;;18.08;67.17;100704.22;5053477;28;19921;-63
2023/07/05 02:23:00;;;;;;;11.25;4.55;;;;;;;18.34;67.28;100700.84;5074264;28;20095;-63
2023/07/05 02:25:27;;;;;;;12.20;4.53;;;;;;;18.46;69.53;100701.50;5073873;28;20059;-64
2023/07/05 02:27:55;;;;;;;10.63;4.55;;;;;;;19.02;64.95;100699.06;5065556;28;20048;-63
2023/07/05 02:30:24;;;;;;;9.27;4.20;;;;;;;19.30;65.16;100704.34;5064471;28;20053;-63
2023/07/05 02:32:51;;;;;;;9.50;4.95;;;;;;;19.45;63.96;100695.88;5072672;28;20055;-63
2023/07/05 02:35:18;;;;;;;8.18;3.78;;;;;;;18.82;66.02;100703.06;5073944;28;20044;-64
2023/07/05 02:37:46;;;;;;;8.60;4.55;;;;;;;19.59;64.29;100706.47;5074301;28;20056;-62
2023/07/05 02:40:13;;;;;;;7.53;4.15;;;;;;;19.73;62.21;100698.34;5071730;28;20068;-62
2023/07/05 02:42:40;;;;;;;12.48;4.50;;;;;;;20.09;62.09;100692.91;5068558;28;20044;-63
2023/07/05 02:45:08;;;;;;;12.02;4.40;;;;;;;19.65;63.41;100703.00;5071957;28;20048;-63
2023/07/05 02:47:36;;;;;;;8.93;4.38;;;;;;;20.11;61.72;100700.91;5071935;28;20048;-63
2023/07/05 02:50:04;;;;;;;12.07;4.20;;;;;;;20.26;60.55;100711.13;5072523;28;20052;-63
2023/07/05 02:52:31;;;;;;;8.85;3.70;;;;;;;20.17;60.60;100705.81;5089929;28;20059;-62
2023/07/05 02:54:58;;;;;;;9.95;4.35;;;;;;;20.28;59.33;100703.16;5086746;28;20495;-64
2023/07/05 02:57:25;;;;;;;9.30;4.07;;;;;;;19.73;61.87;100718.72;5054920;28;20056;-63
2023/07/05 02:59:53;;;;;;;12.48;4.20;;;;;;;20.00;60.98;100723.13;5072284;28;20444;-64
2023/07/05 03:02:20;;;;;;;10.10;3.80;;;;;;;20.27;60.07;100718.34;5071928;28;20041;-63
2023/07/05 03:04:48;;;;;;;9.18;3.85;;;;;;;20.31;60.04;100718.41;5089807;28;20079;-64
2023/07/05 03:07:15;;;;;;;8.23;3.78;;;;;;;20.39;59.45;100715.31;5072349;28;20057;-63
2023/07/05 03:09:48;;;;;;;8.85;3.25;;;;;;;20.45;59.52;100729.78;5072857;28;20063;-63
2023/07/05 03:12:15;;;;;;;10.50;3.55;;;;;;;20.45;58.78;100733.38;5071997;28;20152;-63
2023/07/05 03:14:43;;;;;;;10.50;3.75;;;;;;;20.34;59.12;100728.81;5073136;28;20075;-62
2023/07/05 03:17:11;;;;;;;9.77;3.92;;;;;;;20.41;59.38;100735.34;5073358;28;20365;-64
2023/07/05 03:19:38;;;;;;;8.15;3.40;;;;;;;20.36;59.19;100743.25;5073243;28;20053;-63
2023/07/05 03:22:05;;;;;;;13.48;3.72;;;;;;;20.35;58.21;100748.03;5073621;28;20582;-63
2023/07/05 03:24:33;;;;;;;10.23;3.40;;;;;;;20.45;58.25;100750.16;5073335;28;20060;-62
2023/07/05 03:27:00;;;;;;;8.30;2.88;;;;;;;20.55;57.88;100752.31;5071552;28;20044;-63
2023/07/05 03:29:28;;;;;;;10.00;3.42;;;;;;;20.62;58.10;100749.63;5055483;28;20048;-64
2023/07/05 03:31:59;;;;;;;9.93;3.42;;;;;;;20.57;57.70;100754.72;5071599;28;20562;-62
2023/07/05 03:34:27;;;;;;;8.93;3.38;;;;;;;20.16;58.02;100762.13;5071387;28;20056;-64
2023/07/05 03:36:55;;;;;;;13.75;3.17;;;;;;;20.20;58.54;100762.19;5073414;28;20056;-62
2023/07/05 03:39:22;;;;;;;9.55;3.22;;;;;;;20.47;57.87;100766.59;5052083;28;20473;-62
2023/07/05 03:41:50;;;;;;;7.93;3.00;;;;;;;20.58;57.52;100775.94;5058833;28;20064;-63
2023/07/05 03:44:21;;;;;;;8.40;3.35;;;;;;;20.58;57.31;100779.53;5072241;28;20060;-63
2023/07/05 03:46:49;;;;;;;8.85;3.33;;;;;;;20.45;57.88;100786.53;5082409;28;20563;-62
2023/07/05 03:49:17;;;;;;;14.35;3.20;;;;;;;20.28;57.79;100795.50;5073041;28;20060;-63
2023/07/05 03:51:44;;;;;;;8.27;3.17;;;;;;;20.30;58.21;100789.50;5073048;28;20056;-63
2023/07/05 03:54:12;;;;;;;11.05;2.92;;;;;;;20.29;58.14;100788.72;5073377;28;20056;-63
2023/07/05 03:56:39;;;;;;;10.15;3.05;;;;;;;20.44;57.92;100784.13;5073242;28;20044;-64
2023/07/05 03:59:07;;;;;;;10.50;3.30;;;;;;;20.52;57.54;100788.66;5072836;28;20079;-64
2023/07/05 04:01:35;;;;;;;8.38;3.28;;;;;;;20.55;57.41;100790.69;5085134;28;20550;-63
2023/07/05 04:04:02;;;;;;;8.13;3.05;;;;;;;20.45;57.23;100796.94;5091951;28;20056;-63
2023/07/05 04:06:32;;;;;;;11.13;3.33;;;;;;;20.47;57.36;100797.38;5092335;28;20055;-63
2023/07/05 04:08:59;;;;;;;10.32;3.33;;;;;;;20.44;57.54;100800.91;5093045;28;20514;-62
2023/07/05 04:11:27;;;;;;;11.27;3.05;;;;;;;20.32;57.78;100809.53;5080337;28;20069;-63
2023/07/05 04:13:55;;;;;;;9.48;3.42;;;;;;;20.35;57.56;100808.75;5071518;28;20082;-63
2023/07/05 04:16:24;;;;;;;9.18;3.45;;;;;;;20.48;57.27;100813.78;5072743;28;20044;-63
2023/07/05 04:18:54;;;;;;;10.07;3.40;;;;;;;20.45;57.67;100820.13;5072744;28;20048;-63
2023/07/05 04:21:22;;;;;;;9.70;3.55;;;;;;;20.43;57.30;100832.88;5071750;28;20052;-63
2023/07/05 04:23:50;;;;;;;8.52;2.80;;;;;;;20.38;58.04;100825.59;5071963;28;20596;-63
2023/07/05 04:26:22;;;;;;;7.80;3.70;;;;;;;20.48;57.29;100833.38;5071588;28;20056;-63
2023/07/05 04:28:50;;;;;;;10.80;3.63;;;;;;;20.52;57.08;100833.44;5072069;28;20048;-64
2023/07/05 04:31:28;;;;;;;9.93;3.20;;;;;;;20.33;57.44;100833.53;5072794;28;20055;-63
2023/07/05 04:33:57;;;;;;;11.27;3.45;;;;;;;20.30;57.91;100843.47;5072604;28;20079;-63
2023/07/05 04:36:25;;;;;;;9.75;3.60;;;;;;;20.02;58.55;100845.78;5074008;28;20052;-64
2023/07/05 04:39:00;;;;;;;12.52;3.95;;;;;;;20.13;58.75;100836.41;5076683;28;20044;-63
2023/07/05 04:41:28;;;;;;;11.88;3.45;;;;;;;20.23;58.75;100837.78;5076162;28;20056;-63
2023/07/05 04:43:55;;;;;;;10.52;3.58;;;;;;;20.40;57.61;100836.44;5075695;28;20052;-63
2023/07/05 04:46:23;;;;;;;15.75;4.05;;;;;;;20.19;58.40;100847.31;5090473;28;20056;-63
2023/07/05 04:48:50;;;;;;;14.05;3.75;;;;;;;20.22;58.30;100840.94;5096168;28;20044;-63
2023/07/05 04:51:18;;;;;;;16.98;4.30;;;;;;;20.31;58.13;100844.28;5096282;28;20052;-64
2023/07/05 04:53:45;;;;;;;12.95;4.18;;;;;;;20.35;57.98;100845.94;5095047;28;20070;-62
2023/07/05 04:56:13;;;;;;;15.10;3.88;;;;;;;20.13;57.83;100849.56;5096041;28;20431;-64
2023/07/05 04:58:41;;;;;;;10.07;3.70;;;;;;;20.28;58.41;100847.81;5095984;28;20400;-63
2023/07/05 05:01:09;;;;;;;13.85;4.40;;;;;;;20.12;57.25;100854.34;5087512;28;20055;-64
2023/07/05 05:03:36;;;;;;;13.93;4.07;;;;;;;19.57;59.91;100857.75;5073610;28;20061;-64
2023/07/05 05:06:04;;;;;;;12.10;3.63;;;;;;;20.03;59.35;100855.78;5074572;28;20044;-63
2023/07/05 05:08:31;;;;;;;10.73;4.32;;;;;;;20.13;58.50;100857.97;5074768;28;20049;-64
2023/07/05 05:11:01;;;;;;;14.60;4.63;;;;;;;20.09;58.86;100857.91;5084198;28;20063;-63
2023/07/05 05:13:30;;;;;;;12.15;4.05;;;;;;;20.27;57.98;100844.25;5077919;28;20431;-63
2023/07/05 05:15:58;;;;;;;15.13;4.03;;;;;;;20.31;57.89;100845.09;5074042;28;20372;-63
2023/07/05 05:18:28;;;;;;;13.20;3.78;;;;;;;20.28;58.33;100845.03;5089623;28;20055;-64
2023/07/05 05:20:56;;;;;;;18.77;4.28;;;;;;;20.49;57.29;100851.78;5094596;28;20052;-63
2023/07/05 05:23:24;;;;;;;11.75;4.05;;;;;;;20.38;58.01;100852.81;5095551;28;20666;-63
2023/07/05 05:25:52;;;;;;;14.23;3.80;;;;;;;20.58;57.43;100857.09;5095557;28;20059;-63
2023/07/05 05:28:19;;;;;;;16.15;3.72;;;;;;;20.58;57.00;100851.50;5082464;28;20071;-61
2023/07/05 05:30:48;;;;;;;13.13;4.30;;;;;;;20.48;57.69;100854.94;5075027;28;20479;-61
2023/07/05 05:33:17;;;;;;;15.77;4.47;;;;;;;20.45;57.59;100855.72;5072485;28;20060;-61
2023/07/05 05:35:50;;;;;;;20.38;4.20;;;;;;;20.45;57.38;100858.50;5074107;28;20056;-61
2023/07/05 05:38:18;;;;;;;14.40;3.65;;;;;;;20.46;58.10;100851.72;5084419;28;20059;-60
2023/07/05 05:40:48;;;;;;;14.80;4.03;;;;;;;20.55;57.60;100847.47;5037338;28;20057;-60
2023/07/05 05:43:17;;;;;;;14.48;3.97;;;;;;;20.61;57.12;100857.16;5072649;28;20064;-61
2023/07/05 05:45:44;;;;;;;14.15;3.80;;;;;;;20.59;57.01;100867.13;5074553;28;20048;-61
2023/07/05 05:48:12;;;;;;;16.02;3.78;;;;;;;20.52;57.18;100855.81;5074605;28;20048;-61
2023/07/05 05:50:39;;;;;;;11.88;4.50;;;;;;;20.56;57.57;100854.69;5074508;28;20051;-62
2023/07/05 05:53:06;;;;;;;18.85;4.30;;;;;;;20.63;56.90;100859.56;5074495;28;20048;-61
2023/07/05 05:55:35;;;;;;;11.68;3.75;;;;;;;20.57;57.18;100855.50;5074877;28;20052;-62
2023/07/05 05:58:04;;;;;;;16.48;4.43;;;;;;;20.57;57.21;100861.09;5074631;28;20049;-62
2023/07/05 06:00:32;;;;;;;16.15;4.07;;;;;;;20.80;57.11;100867.44;5077962;28;20048;-61
2023/07/05 06:03:01;;;;;;;19.05;4.78;;;;;;;20.69;56.82;100867.28;5090076;28;20043;-61
2023/07/05 06:05:29;;;;;;;11.70;3.97;;;;;;;20.70;57.02;100871.69;5075011;28;20048;-60
2023/07/05 06:07:56;;;;;;;15.82;4.28;;;;;;;20.49;56.79;100885.34;5074407;28;20059;-61
2023/07/05 06:10:24;;;;;;;15.30;4.00;;;;;;;20.17;58.92;100880.44;5074890;28;20593;-62
2023/07/05 06:12:51;;;;;;;12.98;3.72;;;;;;;20.41;57.92;100888.41;5075120;28;20060;-60
2023/07/05 06:15:18;;;;;;;10.60;4.00;;;;;;;20.70;57.08;100887.66;5073854;28;20044;-62
2023/07/05 06:17:46;;;;;;;18.40;4.03;;;;;;;20.62;57.46;100889.56;5072152;28;20047;-61
2023/07/05 06:20:14;;;;;;;10.45;3.65;;;;;;;20.68;57.00;100890.03;5091326;28;20051;-60
2023/07/05 06:22:42;;;;;;;13.38;3.88;;;;;;;20.79;56.48;100891.00;5069093;28;20053;-61
2023/07/05 06:25:10;;;;;;;11.77;4.13;;;;;;;20.87;56.63;100887.13;5074261;28;20049;-61
2023/07/05 06:27:38;;;;;;;19.02;4.60;;;;;;;20.94;56.28;100890.00;5074037;28;20055;-62
2023/07/05 06:30:06;;;;;;;17.20;3.83;;;;;;;20.61;57.19;100890.72;5073662;28;20048;-61
2023/07/05 06:32:34;;;;;;;14.65;4.00;;;;;;;20.73;57.18;100892.53;5072924;28;20052;-61
2023/07/05 06:35:03;;;;;;;14.20;3.33;;;;;;;20.91;56.79;100894.38;5073472;28;20044;-62
2023/07/05 06:37:31;;;;;;;10.90;3.65;;;;;;;20.86;56.61;100902.31;5052371;28;20044;-60
2023/07/05 06:39:58;;;;;;;14.70;3.45;;;;;;;20.88;56.91;100899.94;5095875;28;20097;-60
2023/07/05 06:42:25;;;;;;;20.60;4.28;;;;;;;20.78;57.08;100895.78;5069960;28;20053;-61
2023/07/05 06:45:01;;;;;;;13.38;3.50;;;;;;;20.99;56.86;100903.75;5057762;28;20070;-64
2023/07/05 06:47:28;;;;;;;16.52;3.28;;;;;;;21.22;56.23;100910.84;5076020;28;20051;-60
2023/07/05 06:49:57;;;;;;;15.85;4.38;;;;;;;20.89;56.96;100909.94;5070915;28;20044;-62
2023/07/05 06:52:24;;;;;;;14.10;3.60;;;;;;;21.03;57.51;100916.59;5072273;28;20055;-62
2023/07/05 06:54:52;;;;;;;18.55;4.03;;;;;;;21.27;56.84;100922.91;5069995;28;20033;-61
2023/07/05 06:57:19;;;;;;;12.27;3.80;;;;;;;21.45;56.54;100919.16;5067679;28;20507;-59
2023/07/05 06:59:46;;;;;;;14.88;3.80;;;;;;;21.38;56.74;100938.69;5065129;28;20052;-61
2023/07/05 07:02:14;;;;;;;16.42;4.13;;;;;;;21.27;56.79;100940.53;5099369;28;20059;-59
2023/07/05 07:04:41;;;;;;;17.65;4.05;;;;;;;21.29;57.34;100940.16;5069144;28;20056;-59
2023/07/05 07:07:10;;;;;;;11.00;3.55;;;;;;;21.36;57.19;100937.47;5075925;28;20063;-60
2023/07/05 07:09:39;;;;;;;13.52;3.58;;;;;;;21.53;56.52;100937.66;5051775;28;20048;-61
2023/07/05 07:12:08;;;;;;;15.23;3.80;;;;;;;21.64;60.26;100949.00;5065015;28;20045;-61
2023/07/05 07:14:35;;;;;;;17.45;3.80;;;;;;;21.59;60.88;100949.34;5075715;28;20522;-60
2023/07/05 07:17:03;;;;;;;16.45;3.35;;;;;;;21.59;59.09;100964.19;5075712;28;20052;-62
2023/07/05 07:19:31;;;;;;;13.27;4.30;;;;;;;21.58;59.79;100971.00;5063625;28;20393;-61
2023/07/05 07:21:58;;;;;;;17.67;4.45;;;;;;;21.21;59.86;100961.66;5073215;28;20056;-60
2023/07/05 07:24:28;;;;;;;11.90;3.95;;;;;;;21.20;61.08;100963.66;5067786;28;20048;-63
2023/07/05 07:26:56;;;;;;;18.52;3.97;;;;;;;21.32;59.04;100962.63;5062875;28;20048;-60
2023/07/05 07:29:24;;;;;;;16.45;4.22;;;;;;;20.72;57.54;100963.69;5068185;28;20143;-59
2023/07/05 07:31:52;;;;;;;12.75;3.63;;;;;;;19.57;59.31;100975.13;5066881;28;20056;-62
2023/07/05 07:34:19;;;;;;;14.23;3.28;;;;;;;19.77;59.72;100971.13;5070810;28;20135;-60
2023/07/05 07:36:47;;;;;;;14.23;3.33;;;;;;;20.22;59.03;100980.81;5075251;28;20066;-60
2023/07/05 07:39:14;;;;;;;14.80;3.20;;;;;;;20.95;56.57;100981.25;5067140;28;20056;-59
2023/07/05 07:41:41;;;;;;;16.90;4.00;;;;;;;21.41;55.27;100979.94;5067315;28;20049;-59
2023/07/05 07:44:10;;;;;;;12.98;3.20;;;;;;;21.14;55.91;100982.00;5074363;28;20059;-60
2023/07/05 07:46:39;;;;;;;13.52;3.85;;;;;;;21.53;55.07;100988.13;5064876;28;20045;-61
2023/07/05 07:49:08;;;;;;;14.48;3.72;;;;;;;21.78;54.61;100983.66;5066666;28;20044;-59
2023/07/05 07:51:38;;;;;;;14.95;4.22;;;;;;;21.85;53.98;100988.53;5067503;28;20045;-60
2023/07/05 07:54:11;;;;;;;11.57;3.08;;;;;;;21.94;54.28;100989.06;5067454;28;20102;-60
2023/07/05 07:56:41;;;;;;;9.93;2.97;;;;;;;21.88;54.07;100988.59;5066090;28;20056;-59
2023/07/05 07:59:09;;;;;;;17.00;3.33;;;;;;;21.94;54.39;100994.66;5055453;28;20400;-60
2023/07/05 08:01:38;;;;;;;11.13;3.15;;;;;;;21.99;54.05;100989.53;5071656;28;20067;-59
2023/07/05 08:04:08;;;;;;;16.85;3.33;;;;;;;21.65;54.81;100996.31;5068054;28;20064;-59
2023/07/05 08:06:40;;;;;;;11.13;2.75;;;;;;;21.52;55.34;100991.31;5076858;28;20048;-60
2023/07/05 08:09:29;;;;;;;14.57;2.92;;;;;;;22.00;53.68;100984.72;5064051;28;20056;-59
2023/07/05 08:11:56;;;;;;;13.35;2.65;;;;;;;22.21;53.22;100984.97;5069172;28;20061;-59
2023/07/05 08:14:24;;;;;;;14.40;3.45;;;;;;;22.24;52.73;100981.38;5068615;28;20499;-58
2023/07/05 08:16:51;;;;;;;11.43;2.90;;;;;;;22.36;52.45;100981.09;5075934;28;20053;-60
2023/07/05 08:19:20;;;;;;;11.85;2.70;;;;;;;21.93;52.98;100982.63;5069118;28;20052;-58
2023/07/05 08:21:49;;;;;;;12.02;2.97;;;;;;;22.01;53.26;100981.53;5081831;28;20054;-60
2023/07/05 08:24:18;;;;;;;7.97;2.70;;;;;;;21.98;53.58;100990.72;5078029;28;20058;-59
2023/07/05 08:26:49;;;;;;;11.05;2.78;;;;;;;21.98;53.68;100992.72;5080319;28;20044;-60
2023/07/05 08:29:17;;;;;;;12.75;3.03;;;;;;;21.76;54.01;100993.63;5073595;28;20790;-59
2023/07/05 08:31:46;;;;;;;11.60;2.70;;;;;;;21.63;52.97;101000.66;5078272;28;20052;-61
2023/07/05 08:34:14;;;;;;;15.93;2.78;;;;;;;22.02;52.49;100997.16;5070815;28;20526;-61
2023/07/05 08:36:42;;;;;;;11.68;2.97;;;;;;;22.19;51.66;100990.16;5097943;28;20055;-61
2023/07/05 08:39:11;;;;;;;13.85;2.85;;;;;;;21.96;52.59;100995.09;5076207;28;20036;-61
2023/07/05 08:41:45;;;;;;;13.43;3.17;;;;;;;22.34;51.69;101001.13;5064883;28;20071;-60
2023/07/05 08:44:30;;;;;;;12.57;2.90;;;;;;;22.54;50.24;101010.19;5083104;28;20052;-62
2023/07/05 08:47:05;;;;;;;15.73;3.20;;;;;;;22.53;49.74;101008.53;5078734;28;20048;-61
2023/07/05 08:49:40;;;;;;;11.35;2.65;;;;;;;22.41;50.23;101014.41;5098592;28;20056;-62
2023/07/05 08:52:33;;;;;;;11.07;2.65;;;;;;;22.19;50.63;101021.81;5068110;28;20587;-61
2023/07/05 08:55:05;;;;;;;11.90;2.80;;;;;;;22.02;51.35;101021.63;5066000;28;20052;-60
2023/07/05 08:57:38;;;;;;;13.27;5.68;;;;;;;21.86;52.90;101035.84;5051693;28;20599;-61
2023/07/05 09:00:13;;;;;;;17.70;3.70;;;;;;;20.94;55.26;101025.25;5063179;28;20413;-62
2023/07/05 09:02:41;;;;;;;10.05;4.25;;;;;;;21.65;53.87;101034.75;5051618;28;20425;-60
2023/07/05 09:05:37;;;;;;;16.13;6.18;;;;;;;22.03;52.44;101021.25;5067857;28;20055;-62
2023/07/05 09:08:13;;;;;;;16.98;3.70;;;;;;;22.27;51.34;101022.69;5066255;28;20059;-60
2023/07/05 09:10:44;;;;;;;17.98;3.75;;;;;;;22.52;50.76;101022.94;5067518;28;20052;-61
2023/07/05 09:13:26;;;;;;;19.58;3.22;;;;;;;22.53;50.65;101013.31;5068857;28;20661;-62
2023/07/05 09:16:12;;;;;;;10.75;3.03;;;;;;;22.31;50.94;101006.72;5077625;28;21058;-61
2023/07/05 09:18:57;;;;;;;11.50;3.42;;;;;;;21.59;52.06;101014.63;5071510;28;20041;-62
2023/07/05 09:21:33;;;;;;;11.52;2.85;;;;;;;21.55;53.14;101019.38;5096907;28;20048;-61
2023/07/05 09:24:11;;;;;;;13.02;2.97;;;;;;;21.74;52.89;101021.25;5073940;28;20036;-62
2023/07/05 09:26:41;;;;;;;12.63;3.15;;;;;;;21.27;53.60;101018.19;5084922;28;20104;-62
2023/07/05 09:29:22;;;;;;;13.88;2.95;;;;;;;21.73;53.58;101019.63;5064613;28;20052;-61
2023/07/05 09:31:50;;;;;;;8.65;2.65;;;;;;;22.13;51.47;101012.13;5071218;28;20542;-62
2023/07/05 09:34:51;;;;;;;15.00;3.60;;;;;;;22.25;51.89;101014.66;5068410;28;20052;-61
2023/07/05 09:37:39;;;;;;;9.07;2.70;;;;;;;22.45;51.29;101012.47;5065235;28;20073;-62
2023/07/05 09:40:17;;;;;;;9.20;3.33;;;;;;;22.61;50.63;101009.44;5105796;27;20381;-63
2023/07/05 09:42:52;;;;;;;9.57;2.72;;;;;;;22.78;49.75;101009.59;5074699;28;20049;-61
2023/07/05 09:45:19;;;;;;;12.30;3.58;;;;;;;22.86;49.58;101014.06;5069311;28;20507;-64
2023/07/05 09:47:58;;;;;;;13.88;6.10;;;;;;;22.92;49.29;101015.31;5067979;28;20618;-63
2023/07/05 09:50:26;;;;;;;8.00;3.17;;;;;;;22.69;49.95;101017.53;5069871;28;20032;-65
2023/07/05 09:53:41;;;;;;;10.70;2.47;;;;;;;23.04;48.97;101026.25;5070132;28;20045;-66
2023/07/05 09:56:13;;;;;;;11.63;2.75;;;;;;;22.38;49.44;101028.44;5073613;28;20052;-66
2023/07/05 09:58:44;;;;;;;6.15;2.42;;;;;;;21.69;51.30;101036.41;5073432;28;20045;-65
2023/07/05 10:01:18;;;;;;;15.35;3.97;;;;;;;21.99;50.57;101040.03;5073019;28;20051;-65
2023/07/05 10:03:52;;;;;;;10.23;4.07;;;;;;;21.69;51.02;101042.00;5070204;28;20052;-64
2023/07/05 10:06:24;;;;;;;6.88;2.47;;;;;;;22.00;51.34;101047.22;5069183;28;20045;-66
2023/07/05 10:08:53;;;;;;;11.15;2.60;;;;;;;20.73;53.11;101049.31;5070411;28;20840;-65
2023/07/05 10:11:22;;;;;;;10.82;2.72;;;;;;;21.63;52.43;101051.13;5074520;28;20059;-65
2023/07/05 10:14:06;;;;;;;20.45;2.80;;;;;;;22.34;49.92;101039.63;5069029;28;20077;-65
2023/07/05 10:16:45;;;;;;;11.55;3.63;;;;;;;22.75;52.19;101034.84;5068028;28;20040;-65
2023/07/05 10:19:23;;;;;;;7.00;2.57;;;;;;;23.12;50.54;101044.78;5074399;28;20048;-65
2023/07/05 10:22:15;;;;;;;13.90;3.20;;;;;;;23.31;49.05;101040.91;5072415;28;20048;-67
2023/07/05 10:24:48;;;;;;;14.15;6.85;;;;;;;22.56;48.66;101043.50;5055053;28;20048;-68
2023/07/05 10:27:24;;;;;;;18.33;7.22;;;;;;;22.41;50.48;101044.47;5069140;28;20044;-67
2023/07/05 10:30:00;;;;;;;13.00;5.05;;;;;;;22.27;48.82;101045.97;5067906;28;20075;-67
2023/07/05 10:32:29;;;;;;;10.60;2.90;;;;;;;20.70;50.88;101056.44;5063287;28;20059;-67
2023/07/05 10:34:58;;;;;;;14.55;3.10;;;;;;;20.99;53.63;101055.78;5074068;28;20052;-68
2023/07/05 10:37:37;;;;;;;12.95;5.25;;;;;;;22.11;50.88;101056.59;5077742;28;20044;-67
2023/07/05 10:40:09;;;;;;;13.55;8.38;;;;;;;22.85;48.86;101042.53;5061049;28;20052;-69
2023/07/05 10:42:40;;;;;;;13.18;4.55;;;;;;;22.66;48.10;101037.16;5071448;28;20052;-65
2023/07/05 10:45:12;;;;;;;13.00;6.68;;;;;;;23.02;47.64;101036.25;5070954;28;20543;-68
2023/07/05 10:47:41;;;;;;;15.63;7.22;;;;;;;23.20;47.55;101034.41;5073130;28;20044;-67
2023/07/05 10:50:09;;;;;;;11.98;5.15;;;;;;;22.80;47.24;101034.47;5074132;28;20495;-65
2023/07/05 10:52:38;;;;;;;11.90;6.47;;;;;;;22.46;47.40;101050.56;5076862;28;20063;-66
2023/07/05 10:55:10;;;;;;;16.17;11.43;;;;;;;22.10;49.31;101057.81;5078740;28;20415;-66
2023/07/05 10:57:43;;;;;;;64.15;47.40;;;;;;;21.98;49.11;101048.81;5073619;28;20063;-66
2023/07/05 11:00:39;;;;;;;20.50;12.32;;;;;;;21.76;49.35;101053.31;5078356;28;20058;-67
2023/07/05 11:03:23;;;;;;;15.38;6.60;;;;;;;21.60;51.62;101047.09;5075514;28;20063;-67
2023/07/05 11:05:55;;;;;;;13.25;6.78;;;;;;;22.39;47.00;101044.09;5077496;28;20047;-66
2023/07/05 11:08:28;;;;;;;11.48;5.97;;;;;;;22.64;47.83;101043.16;5096138;28;20048;-66
2023/07/05 11:11:06;;;;;;;10.45;3.60;;;;;;;22.69;47.27;101044.81;5069489;28;20064;-66
2023/07/05 11:13:33;;;;;;;11.07;4.15;;;;;;;22.81;47.34;101033.28;5073673;28;20051;-67
2023/07/05 11:16:00;;;;;;;12.15;5.65;;;;;;;23.05;47.25;101035.47;5068734;28;20051;-66
2023/07/05 11:18:28;;;;;;;12.48;6.32;;;;;;;23.27;46.90;101032.44;5065634;28;20051;-66
2023/07/05 11:20:57;;;;;;;12.80;7.10;;;;;;;23.59;45.56;101021.41;5071346;28;20563;-66
2023/07/05 11:23:46;;;;;;;9.68;4.57;;;;;;;23.54;45.24;101021.78;5073726;28;20510;-66
2023/07/05 11:26:29;;;;;;;10.05;4.15;;;;;;;23.78;45.07;101029.53;5068801;28;20052;-67
2023/07/05 11:28:56;;;;;;;9.95;4.25;;;;;;;23.85;44.82;101028.78;5068033;28;20056;-67
2023/07/05 11:31:29;;;;;;;13.02;3.72;;;;;;;23.51;44.59;101019.75;5067216;28;20059;-68
2023/07/05 11:34:25;;;;;;;12.50;6.10;;;;;;;22.75;46.37;101037.66;5078232;28;20527;-68
2023/07/05 11:37:14;;;;;;;11.10;3.72;;;;;;;22.46;54.93;101027.28;5100455;28;20041;-66